Time;durP1;ratioP1;P1;durP2;ratioP2;P2;SDS_P1;SDS_P2;PMS_P1;PMS_P2;Temp;Humidity;BMP_temperature;BMP_pressure;BME280_temperature;BME280_humidity;BME280_pressure;Samples;Min_cycle;Max_cycle;Signal;HPM_P1;HPM_P2
2022/09/20 00:00:44;;;;;;;0.00;0.00;;;10.20;99.90;;;;;;5040454;28;20672;-63
2022/09/20 00:03:10;;;;;;;0.00;0.00;;;10.20;99.90;;;;;;5049892;28;20286;-62
2022/09/20 00:05:38;;;;;;;0.00;0.00;;;10.20;99.90;;;;;;5049814;28;20558;-62
2022/09/20 00:08:06;;;;;;;0.00;0.00;;;10.20;99.90;;;;;;5037340;28;20173;-63
2022/09/20 00:10:36;;;;;;;0.10;0.10;;;10.30;99.90;;;;;;5050020;28;20181;-63
2022/09/20 00:13:02;;;;;;;0.00;0.00;;;10.30;99.90;;;;;;5036587;28;20189;-62
2022/09/20 00:15:29;;;;;;;0.00;0.00;;;10.30;99.90;;;;;;5035363;28;20190;-63
2022/09/20 00:17:55;;;;;;;0.00;0.00;;;10.30;99.90;;;;;;5046271;28;20640;-63
2022/09/20 00:20:21;;;;;;;0.10;0.10;;;10.20;99.90;;;;;;5034197;28;20196;-62
2022/09/20 00:22:48;;;;;;;0.13;0.08;;;10.20;99.90;;;;;;5051769;28;20177;-63
2022/09/20 00:25:15;;;;;;;0.10;0.10;;;10.20;99.90;;;;;;5051616;28;20276;-63
2022/09/20 00:27:40;;;;;;;0.00;0.00;;;10.20;99.90;;;;;;5051341;28;20590;-63
2022/09/20 00:30:07;;;;;;;0.10;0.10;;;10.20;99.90;;;;;;5051322;28;20266;-62
2022/09/20 00:32:32;;;;;;;0.00;0.00;;;10.20;99.90;;;;;;5044159;28;20758;-62
2022/09/20 00:35:07;;;;;;;0.00;0.00;;;10.30;99.90;;;;;;5033292;28;20233;-63
2022/09/20 00:37:38;;;;;;;0.00;0.00;;;10.30;99.90;;;;;;5026002;28;20185;-63
2022/09/20 00:40:05;;;;;;;0.00;0.00;;;10.30;99.90;;;;;;5033349;28;20182;-63
2022/09/20 00:42:31;;;;;;;0.00;0.00;;;10.30;99.90;;;;;;5036171;28;20256;-63
2022/09/20 00:45:03;;;;;;;0.00;0.00;;;10.30;99.90;;;;;;5053055;28;20648;-63
2022/09/20 00:47:39;;;;;;;0.00;0.00;;;10.30;99.90;;;;;;5038693;28;20232;-63
2022/09/20 00:50:04;;;;;;;0.22;0.10;;;10.30;99.90;;;;;;5034185;28;20178;-63
2022/09/20 00:52:31;;;;;;;0.00;0.00;;;10.30;99.90;;;;;;5032908;28;20193;-63
2022/09/20 00:54:58;;;;;;;0.10;0.10;;;10.30;99.90;;;;;;5032878;28;20181;-62
2022/09/20 00:57:24;;;;;;;0.20;0.20;;;10.40;99.90;;;;;;5052801;28;20547;-63
2022/09/20 00:59:51;;;;;;;0.00;0.00;;;10.40;99.90;;;;;;5042594;28;20173;-63
2022/09/20 01:02:26;;;;;;;0.00;0.00;;;10.40;99.90;;;;;;5032339;28;20245;-63
2022/09/20 01:04:52;;;;;;;0.00;0.00;;;10.40;99.90;;;;;;5013070;28;20229;-63
2022/09/20 01:07:21;;;;;;;0.00;0.00;;;10.40;99.90;;;;;;5035155;28;20170;-63
2022/09/20 01:09:47;;;;;;;0.05;0.05;;;10.40;99.90;;;;;;5051009;28;20526;-63
2022/09/20 01:12:18;;;;;;;1.25;0.25;;;10.40;99.90;;;;;;5042490;28;20210;-63
2022/09/20 01:14:46;;;;;;;0.00;0.00;;;10.50;99.90;;;;;;5040268;28;20661;-62
2022/09/20 01:17:12;;;;;;;0.00;0.00;;;10.40;99.90;;;;;;5040350;28;20217;-63
2022/09/20 01:20:07;;;;;;;0.30;0.20;;;10.40;99.90;;;;;;5042977;28;20563;-62
2022/09/20 01:22:38;;;;;;;0.10;0.10;;;10.30;99.90;;;;;;5026096;28;20206;-62
2022/09/20 01:25:12;;;;;;;0.00;0.00;;;10.30;99.90;;;;;;5045291;28;20220;-63
2022/09/20 01:27:47;;;;;;;0.00;0.00;;;10.30;99.90;;;;;;5030415;28;20188;-62
2022/09/20 01:30:18;;;;;;;0.00;0.00;;;10.30;99.90;;;;;;5037781;28;20178;-62
2022/09/20 01:32:55;;;;;;;0.00;0.00;;;10.30;99.90;;;;;;5046923;28;20177;-62
2022/09/20 01:35:24;;;;;;;0.08;0.08;;;10.30;99.90;;;;;;5044710;28;20177;-62
2022/09/20 01:38:10;;;;;;;0.00;0.00;;;10.30;99.90;;;;;;5032118;28;20236;-63
2022/09/20 01:40:47;;;;;;;0.00;0.00;;;10.30;99.90;;;;;;5042582;28;20182;-62
2022/09/20 01:43:54;;;;;;;0.08;0.08;;;10.30;99.90;;;;;;5042780;28;20208;-62
2022/09/20 01:46:31;;;;;;;0.00;0.00;;;10.30;99.90;;;;;;5044298;28;20190;-62
2022/09/20 01:49:10;;;;;;;0.00;0.00;;;10.30;99.90;;;;;;5031994;28;20178;-62
2022/09/20 01:52:11;;;;;;;0.00;0.00;;;10.30;99.90;;;;;;5051473;28;20186;-62
2022/09/20 01:55:14;;;;;;;0.00;0.00;;;10.30;99.90;;;;;;5036757;28;20223;-62
2022/09/20 01:58:06;;;;;;;0.00;0.00;;;10.30;99.90;;;;;;5031939;28;20194;-62
2022/09/20 02:01:05;;;;;;;0.93;0.25;;;10.30;99.90;;;;;;5030785;28;20650;-62
2022/09/20 02:04:01;;;;;;;0.75;0.75;;;10.30;99.90;;;;;;5031330;28;20234;-62
2022/09/20 02:06:45;;;;;;;0.00;0.00;;;10.30;99.90;;;;;;5012012;28;20218;-63
2022/09/20 02:10:06;;;;;;;0.00;0.00;;;10.30;99.90;;;;;;5039689;28;20177;-62
2022/09/20 02:12:52;;;;;;;0.03;0.03;;;10.30;99.90;;;;;;5030417;28;20223;-62
2022/09/20 02:15:50;;;;;;;2.45;0.13;;;10.30;99.90;;;;;;5040558;28;20193;-62
2022/09/20 02:19:02;;;;;;;0.00;0.00;;;10.30;99.90;;;;;;5036240;28;20206;-62
2022/09/20 02:21:39;;;;;;;0.03;0.03;;;10.30;99.90;;;;;;5038591;28;20602;-62
2022/09/20 02:24:27;;;;;;;0.28;0.28;;;10.20;99.90;;;;;;5051373;28;20213;-62
2022/09/20 02:27:22;;;;;;;0.00;0.00;;;10.20;99.90;;;;;;5035472;28;20186;-62
2022/09/20 02:29:57;;;;;;;0.08;0.08;;;10.20;99.90;;;;;;5040590;28;20268;-62
2022/09/20 02:32:28;;;;;;;0.00;0.00;;;10.20;99.90;;;;;;5046912;28;20195;-62
2022/09/20 02:35:12;;;;;;;0.00;0.00;;;10.20;99.90;;;;;;5039196;28;20657;-62
2022/09/20 02:37:52;;;;;;;0.00;0.00;;;10.20;99.90;;;;;;5035024;28;20193;-62
2022/09/20 02:40:43;;;;;;;0.00;0.00;;;10.20;99.90;;;;;;5033290;28;20174;-62
2022/09/20 02:43:16;;;;;;;0.15;0.08;;;10.10;99.90;;;;;;5049560;28;20213;-62
2022/09/20 02:45:57;;;;;;;0.00;0.00;;;10.10;99.90;;;;;;5035505;28;20214;-62
2022/09/20 02:48:33;;;;;;;0.00;0.00;;;10.10;99.90;;;;;;5035492;28;20182;-62
2022/09/20 02:51:21;;;;;;;0.00;0.00;;;10.00;99.90;;;;;;5040716;28;20234;-62
2022/09/20 02:54:17;;;;;;;0.08;0.08;;;10.00;99.90;;;;;;5055182;28;20177;-62
2022/09/20 02:56:51;;;;;;;0.00;0.00;;;10.00;99.90;;;;;;5015550;28;20536;-62
2022/09/20 02:59:45;;;;;;;0.00;0.00;;;10.00;99.90;;;;;;5042969;28;20189;-62
2022/09/20 03:02:34;;;;;;;0.10;0.10;;;10.00;99.90;;;;;;5037719;28;20222;-62
2022/09/20 03:05:13;;;;;;;0.00;0.00;;;10.00;99.90;;;;;;5044071;28;20631;-62
2022/09/20 03:07:56;;;;;;;0.20;0.20;;;10.00;99.90;;;;;;5053247;28;20184;-62
2022/09/20 03:10:36;;;;;;;0.00;0.00;;;10.00;99.90;;;;;;5034860;28;20504;-62
2022/09/20 03:13:37;;;;;;;0.03;0.03;;;10.00;99.90;;;;;;5036381;28;20392;-62
2022/09/20 03:16:20;;;;;;;0.00;0.00;;;9.90;99.90;;;;;;5041734;28;20268;-62
2022/09/20 03:19:23;;;;;;;0.00;0.00;;;9.90;99.90;;;;;;5052901;28;20186;-62
2022/09/20 03:22:25;;;;;;;0.00;0.00;;;9.90;99.90;;;;;;5046833;28;20312;-62
2022/09/20 03:25:06;;;;;;;0.00;0.00;;;9.90;99.90;;;;;;5035212;28;22279;-62
2022/09/20 03:28:01;;;;;;;0.00;0.00;;;9.90;99.90;;;;;;5054397;28;20974;-62
2022/09/20 03:30:50;;;;;;;0.10;0.10;;;10.00;99.90;;;;;;5017374;28;20589;-62
2022/09/20 03:33:25;;;;;;;0.00;0.00;;;10.00;99.90;;;;;;5037185;28;20190;-61
2022/09/20 03:36:10;;;;;;;0.00;0.00;;;10.00;99.90;;;;;;5049177;28;20201;-62
2022/09/20 03:39:01;;;;;;;0.65;0.10;;;10.00;99.90;;;;;;5054190;28;20230;-62
2022/09/20 03:41:52;;;;;;;0.00;0.00;;;10.00;99.90;;;;;;5053942;28;20181;-62
2022/09/20 03:44:41;;;;;;;0.00;0.00;;;10.00;99.90;;;;;;5052149;28;20783;-62
2022/09/20 03:47:20;;;;;;;0.08;0.08;;;9.90;99.90;;;;;;5052467;28;20191;-62
2022/09/20 03:50:19;;;;;;;0.00;0.00;;;9.90;99.90;;;;;;5036853;28;20293;-62
2022/09/20 03:53:10;;;;;;;0.00;0.00;;;9.90;99.90;;;;;;5046229;28;20181;-62
2022/09/20 03:56:11;;;;;;;0.00;0.00;;;9.80;99.90;;;;;;5040112;28;20320;-63
2022/09/20 03:59:20;;;;;;;0.00;0.00;;;9.80;99.90;;;;;;5033234;28;20177;-63
2022/09/20 04:01:55;;;;;;;0.00;0.00;;;9.80;99.90;;;;;;5044613;28;20194;-64
2022/09/20 04:04:39;;;;;;;0.00;0.00;;;9.80;99.90;;;;;;5035247;28;20295;-64
2022/09/20 04:07:36;;;;;;;0.10;0.10;;;9.70;99.90;;;;;;5033910;28;20170;-62
2022/09/20 04:10:29;;;;;;;0.00;0.00;;;9.80;99.90;;;;;;5014059;28;20182;-64
2022/09/20 04:13:10;;;;;;;0.00;0.00;;;9.70;99.90;;;;;;5014015;28;20262;-63
2022/09/20 04:15:52;;;;;;;0.00;0.00;;;9.70;99.90;;;;;;5034386;28;20186;-65
2022/09/20 04:18:49;;;;;;;0.10;0.10;;;9.70;99.90;;;;;;5034301;28;20684;-65
2022/09/20 04:21:22;;;;;;;0.20;0.20;;;9.70;99.90;;;;;;5033817;28;20186;-66
2022/09/20 04:24:17;;;;;;;0.00;0.00;;;9.60;99.90;;;;;;5042331;28;20214;-67
2022/09/20 04:26:50;;;;;;;0.00;0.00;;;9.60;99.90;;;;;;5035581;28;20170;-65
2022/09/20 04:29:40;;;;;;;0.08;0.00;;;9.60;99.90;;;;;;5033441;28;20594;-61
2022/09/20 04:32:20;;;;;;;0.00;0.00;;;9.60;99.90;;;;;;5048704;28;20208;-64
2022/09/20 04:37:41;;;;;;;0.17;0.17;;;9.60;99.90;;;;;;5033462;28;20228;-63
2022/09/20 04:40:28;;;;;;;0.00;0.00;;;9.50;99.90;;;;;;5037728;28;20552;-66
2022/09/20 04:43:16;;;;;;;0.00;0.00;;;9.50;99.90;;;;;;5053107;28;20209;-65
2022/09/20 04:46:02;;;;;;;0.00;0.00;;;9.50;99.90;;;;;;5050888;28;20652;-65
2022/09/20 04:48:49;;;;;;;0.00;0.00;;;9.50;99.90;;;;;;5052864;28;20174;-65
2022/09/20 04:51:46;;;;;;;0.00;0.00;;;9.40;99.90;;;;;;5053051;28;20311;-65
2022/09/20 04:54:59;;;;;;;0.00;0.00;;;9.40;99.90;;;;;;5052826;28;20170;-65
2022/09/20 04:58:07;;;;;;;1.08;0.20;;;9.40;99.90;;;;;;5033224;28;20186;-65
2022/09/20 05:00:51;;;;;;;0.00;0.00;;;9.30;99.90;;;;;;5041477;28;20660;-65
2022/09/20 05:03:23;;;;;;;0.20;0.20;;;9.30;99.90;;;;;;5052547;28;20229;-65
2022/09/20 05:06:19;;;;;;;0.10;0.10;;;9.30;99.90;;;;;;5052035;28;20173;-65
2022/09/20 05:09:12;;;;;;;0.00;0.00;;;9.10;99.90;;;;;;5052820;28;20201;-65
2022/09/20 05:11:49;;;;;;;0.00;0.00;;;9.10;99.90;;;;;;5044160;28;20652;-65
2022/09/20 05:14:49;;;;;;;0.38;0.38;;;9.00;99.90;;;;;;5052516;28;20199;-65
2022/09/20 05:17:24;;;;;;;0.00;0.00;;;9.00;99.90;;;;;;5052497;28;20186;-65
2022/09/20 05:20:24;;;;;;;0.00;0.00;;;9.00;99.90;;;;;;5052449;28;20180;-65
2022/09/20 05:23:15;;;;;;;0.00;0.00;;;9.00;99.90;;;;;;5052453;28;20193;-65
2022/09/20 05:26:07;;;;;;;0.00;0.00;;;9.00;99.90;;;;;;5051294;28;20589;-65
2022/09/20 05:28:55;;;;;;;0.00;0.00;;;9.00;99.90;;;;;;5052360;28;20579;-64
2022/09/20 05:31:48;;;;;;;0.00;0.00;;;9.00;99.90;;;;;;5052245;28;20185;-65
2022/09/20 05:34:30;;;;;;;0.10;0.10;;;9.00;99.90;;;;;;5052401;28;20203;-65
2022/09/20 05:37:35;;;;;;;0.00;0.00;;;9.00;99.90;;;;;;5036037;28;20225;-65
2022/09/20 05:40:49;;;;;;;0.10;0.10;;;9.10;99.90;;;;;;5032507;28;20188;-65
2022/09/20 05:43:31;;;;;;;0.00;0.00;;;9.20;99.90;;;;;;5031310;28;20225;-65
2022/09/20 05:46:47;;;;;;;0.10;0.10;;;9.20;99.90;;;;;;5032313;28;20185;-65
2022/09/20 05:49:46;;;;;;;0.30;0.30;;;9.20;99.90;;;;;;5031048;28;20186;-65
2022/09/20 05:52:44;;;;;;;0.00;0.00;;;9.20;99.90;;;;;;5032037;28;20178;-65
2022/09/20 05:55:19;;;;;;;0.00;0.00;;;9.20;99.90;;;;;;5031628;28;20668;-64
2022/09/20 05:58:16;;;;;;;0.00;0.00;;;9.20;99.90;;;;;;5032128;28;20268;-65
2022/09/20 06:01:01;;;;;;;0.00;0.00;;;9.20;99.90;;;;;;5032295;28;20598;-65
2022/09/20 06:03:38;;;;;;;0.80;0.15;;;9.20;99.90;;;;;;5031398;28;20226;-65
2022/09/20 06:06:12;;;;;;;0.10;0.10;;;9.30;99.90;;;;;;5031873;28;20650;-65
2022/09/20 06:09:02;;;;;;;0.00;0.00;;;9.30;99.90;;;;;;5031902;28;20298;-65
2022/09/20 06:12:00;;;;;;;0.00;0.00;;;9.40;99.90;;;;;;5031851;28;20185;-65
2022/09/20 06:15:00;;;;;;;0.00;0.00;;;9.50;99.90;;;;;;5031781;28;20261;-65
2022/09/20 06:17:58;;;;;;;0.00;0.00;;;9.70;99.90;;;;;;5033698;28;20178;-65
2022/09/20 06:20:38;;;;;;;0.10;0.10;;;10.10;99.90;;;;;;5037196;28;20213;-65
2022/09/20 06:23:04;;;;;;;0.00;0.00;;;10.50;99.90;;;;;;5038214;28;20174;-65
2022/09/20 06:25:47;;;;;;;0.00;0.00;;;11.00;99.90;;;;;;5038148;28;20649;-66
2022/09/20 06:28:19;;;;;;;0.00;0.00;;;11.50;99.90;;;;;;5038209;28;20600;-65
2022/09/20 06:30:48;;;;;;;0.00;0.00;;;12.10;99.90;;;;;;5038238;28;20204;-65
2022/09/20 06:33:15;;;;;;;0.00;0.00;;;12.30;99.90;;;;;;5038259;28;20216;-65
2022/09/20 06:41:25;;;;;;;0.00;0.00;;;12.60;99.90;;;;;;5037991;28;20182;-65
2022/09/20 06:41:59;;;;;;;0.00;0.00;;;13.70;99.90;;;;;;5037787;28;20193;-66
2022/09/20 06:44:25;;;;;;;0.10;0.10;;;14.20;99.90;;;;;;5037966;28;20607;-66
2022/09/20 06:46:54;;;;;;;0.00;0.00;;;14.60;99.90;;;;;;5038228;28;20170;-66
2022/09/20 06:49:20;;;;;;;0.00;0.00;;;14.90;99.90;;;;;;5037975;28;20181;-65
2022/09/20 06:51:46;;;;;;;0.00;0.00;;;15.20;99.90;;;;;;5036913;28;20201;-66
2022/09/20 06:54:17;;;;;;;0.00;0.00;;;15.70;99.90;;;;;;5038064;28;20174;-66
2022/09/20 06:56:44;;;;;;;0.00;0.00;;;16.20;99.90;;;;;;5038121;28;20181;-66
2022/09/20 06:59:11;;;;;;;0.00;0.00;;;16.60;99.90;;;;;;5038098;28;20280;-66
2022/09/20 07:01:37;;;;;;;0.38;0.03;;;17.10;99.90;;;;;;5037982;28;20178;-66
2022/09/20 07:04:05;;;;;;;0.00;0.00;;;17.50;99.10;;;;;;5037675;28;20244;-66
2022/09/20 07:06:31;;;;;;;0.00;0.00;;;17.90;97.80;;;;;;5037960;28;20220;-66
2022/09/20 07:08:57;;;;;;;0.00;0.00;;;18.20;97.20;;;;;;5038004;28;20189;-66
2022/09/20 07:11:22;;;;;;;0.00;0.00;;;18.50;96.40;;;;;;5037822;28;20564;-67
2022/09/20 07:13:53;;;;;;;0.00;0.00;;;18.70;95.40;;;;;;5037992;28;20224;-65
2022/09/20 07:16:19;;;;;;;0.00;0.00;;;19.10;94.90;;;;;;5037645;28;20659;-66
2022/09/20 07:18:46;;;;;;;0.00;0.00;;;19.30;94.40;;;;;;5037950;28;20190;-66
2022/09/20 07:21:14;;;;;;;0.00;0.00;;;19.60;93.70;;;;;;5037832;28;20178;-65
2022/09/20 07:23:40;;;;;;;0.00;0.00;;;19.50;92.60;;;;;;5037647;28;20245;-66
2022/09/20 07:26:06;;;;;;;0.00;0.00;;;19.40;92.40;;;;;;5037864;28;20641;-66
2022/09/20 07:28:33;;;;;;;0.00;0.00;;;19.40;92.20;;;;;;5036925;28;20179;-66
2022/09/20 07:31:00;;;;;;;0.00;0.00;;;19.50;92.20;;;;;;5034077;28;20182;-66
2022/09/20 07:33:25;;;;;;;0.00;0.00;;;19.80;92.00;;;;;;5034586;28;20189;-66
2022/09/20 07:35:53;;;;;;;0.10;0.10;;;20.10;91.00;;;;;;5034564;28;20253;-66
2022/09/20 07:38:20;;;;;;;0.00;0.00;;;20.30;90.00;;;;;;5034446;28;20248;-66
2022/09/20 07:40:54;;;;;;;0.00;0.00;;;20.60;90.10;;;;;;5034531;28;20641;-66
2022/09/20 07:43:19;;;;;;;0.00;0.00;;;21.10;89.80;;;;;;5034236;28;20296;-66
2022/09/20 07:45:52;;;;;;;0.00;0.00;;;21.50;87.10;;;;;;5034516;28;20308;-66
2022/09/20 07:48:19;;;;;;;0.00;0.00;;;21.50;84.50;;;;;;5034164;28;20174;-66
2022/09/20 07:50:56;;;;;;;0.00;0.00;;;21.80;84.30;;;;;;5034281;28;20576;-66
2022/09/20 07:53:22;;;;;;;0.00;0.00;;;21.80;82.60;;;;;;5034109;28;20677;-66
2022/09/20 07:56:04;;;;;;;0.00;0.00;;;21.90;81.10;;;;;;5034288;28;20189;-66
2022/09/20 07:58:32;;;;;;;0.00;0.00;;;22.10;81.80;;;;;;5034143;28;20193;-66
2022/09/20 08:01:00;;;;;;;0.00;0.00;;;22.30;80.10;;;;;;5034032;28;20178;-66
2022/09/20 08:03:28;;;;;;;0.00;0.00;;;22.50;80.10;;;;;;5033756;28;20252;-67
2022/09/20 08:06:06;;;;;;;0.00;0.00;;;22.70;79.60;;;;;;5034236;28;20536;-66
2022/09/20 08:08:37;;;;;;;0.00;0.00;;;23.10;77.20;;;;;;5034012;28;20182;-66
2022/09/20 08:11:07;;;;;;;0.00;0.00;;;23.40;76.50;;;;;;5033879;28;20181;-66
2022/09/20 08:13:41;;;;;;;0.00;0.00;;;23.50;74.20;;;;;;5033860;28;20178;-66
2022/09/20 08:16:09;;;;;;;0.00;0.00;;;23.60;74.60;;;;;;5033852;28;20175;-66
2022/09/20 08:18:36;;;;;;;0.00;0.00;;;23.50;73.90;;;;;;5033787;28;20174;-66
2022/09/20 08:21:05;;;;;;;0.00;0.00;;;23.30;72.70;;;;;;5033666;28;20660;-66
2022/09/20 08:23:33;;;;;;;0.00;0.00;;;23.20;74.50;;;;;;5033522;28;20271;-66
2022/09/20 08:25:58;;;;;;;0.00;0.00;;;22.80;72.00;;;;;;5033618;28;20185;-66
2022/09/20 08:28:23;;;;;;;0.00;0.00;;;22.40;74.00;;;;;;5033521;28;20182;-66
2022/09/20 08:30:49;;;;;;;0.00;0.00;;;21.70;74.10;;;;;;5033669;28;20174;-66
2022/09/20 08:33:14;;;;;;;0.00;0.00;;;21.00;76.20;;;;;;5033536;28;20253;-66
2022/09/20 08:35:40;;;;;;;0.00;0.00;;;20.40;77.90;;;;;;5033374;28;20174;-66
2022/09/20 08:38:06;;;;;;;0.00;0.00;;;19.90;80.60;;;;;;5032312;28;20174;-63
2022/09/20 08:40:33;;;;;;;0.00;0.00;;;19.70;80.70;;;;;;5033207;28;20178;-63
2022/09/20 08:42:59;;;;;;;0.00;0.00;;;19.50;82.30;;;;;;5033175;28;20185;-63
2022/09/20 08:45:25;;;;;;;0.00;0.00;;;19.30;82.50;;;;;;5033260;28;20186;-64
2022/09/20 08:47:56;;;;;;;0.00;0.00;;;19.70;82.50;;;;;;5033354;28;20653;-63
2022/09/20 08:50:22;;;;;;;0.00;0.00;;;20.10;84.60;;;;;;5033055;28;20178;-63
2022/09/20 08:52:53;;;;;;;0.00;0.00;;;20.70;83.80;;;;;;5033149;28;20216;-64
2022/09/20 08:55:31;;;;;;;0.00;0.00;;;20.90;82.40;;;;;;5032914;28;20182;-63
2022/09/20 08:57:58;;;;;;;0.08;0.08;;;21.00;82.00;;;;;;5032959;28;20548;-64
2022/09/20 09:00:33;;;;;;;0.03;0.03;;;20.60;79.10;;;;;;5032996;28;20182;-64
2022/09/20 09:03:04;;;;;;;0.00;0.00;;;20.20;79.70;;;;;;5032666;28;20226;-63
2022/09/20 09:05:47;;;;;;;0.05;0.05;;;19.80;81.60;;;;;;5032808;28;20182;-63
2022/09/20 09:08:26;;;;;;;0.00;0.00;;;19.50;84.20;;;;;;5032948;28;20185;-63
2022/09/20 09:10:55;;;;;;;0.00;0.00;;;19.40;84.60;;;;;;5032963;28;20182;-63
2022/09/20 09:13:31;;;;;;;0.00;0.00;;;19.70;85.80;;;;;;5032579;28;20227;-63
2022/09/20 09:16:14;;;;;;;0.00;0.00;;;20.10;84.60;;;;;;5032776;28;20209;-63
2022/09/20 09:18:42;;;;;;;0.00;0.00;;;20.40;79.00;;;;;;5032589;28;20169;-63
2022/09/20 09:21:15;;;;;;;0.00;0.00;;;20.10;78.00;;;;;;5032637;28;20225;-63
2022/09/20 09:23:48;;;;;;;0.00;0.00;;;19.90;76.70;;;;;;5032457;28;20672;-63
2022/09/20 09:26:20;;;;;;;0.00;0.00;;;19.90;78.80;;;;;;5032566;28;20181;-63
2022/09/20 09:28:47;;;;;;;0.00;0.00;;;20.20;78.20;;;;;;5032647;28;20178;-63
2022/09/20 09:31:21;;;;;;;0.00;0.00;;;20.60;79.20;;;;;;5032459;28;20279;-63
2022/09/20 09:33:47;;;;;;;0.00;0.00;;;21.00;78.30;;;;;;5032551;28;20190;-63
2022/09/20 09:36:16;;;;;;;0.00;0.00;;;21.00;76.40;;;;;;5032284;28;20178;-63
2022/09/20 09:38:44;;;;;;;0.03;0.03;;;20.80;77.60;;;;;;5032198;28;20174;-63
2022/09/20 09:41:29;;;;;;;0.00;0.00;;;20.50;76.80;;;;;;5032326;28;20272;-63
2022/09/20 09:44:20;;;;;;;0.00;0.00;;;20.30;76.00;;;;;;5032305;28;20217;-63
2022/09/20 09:46:45;;;;;;;0.00;0.00;;;20.10;78.30;;;;;;5031826;28;20194;-63
2022/09/20 09:49:22;;;;;;;0.00;0.00;;;20.40;77.60;;;;;;5032143;28;20189;-62
2022/09/20 09:52:13;;;;;;;0.00;0.00;;;20.70;78.80;;;;;;5031686;28;20178;-65
2022/09/20 09:54:45;;;;;;;0.00;0.00;;;20.90;74.70;;;;;;5032006;28;20178;-65
2022/09/20 09:57:30;;;;;;;0.00;0.00;;;20.80;73.80;;;;;;5032058;28;20261;-65
2022/09/20 10:00:18;;;;;;;0.00;0.00;;;20.60;71.80;;;;;;5032050;28;20182;-65
2022/09/20 10:03:03;;;;;;;0.30;0.30;;;20.20;72.00;;;;;;5032020;28;20234;-65
2022/09/20 10:05:55;;;;;;;0.00;0.00;;;19.70;73.30;;;;;;5031994;28;20186;-65
2022/09/20 10:08:37;;;;;;;0.05;0.05;;;19.30;74.70;;;;;;5030546;28;20178;-66
2022/09/20 10:11:17;;;;;;;0.00;0.00;;;19.00;76.30;;;;;;5031889;28;20178;-66
2022/09/20 10:14:04;;;;;;;0.00;0.00;;;18.70;76.40;;;;;;5031916;28;20177;-65
2022/09/20 10:16:45;;;;;;;0.00;0.00;;;18.60;78.00;;;;;;5031698;28;20563;-65
2022/09/20 10:19:23;;;;;;;0.00;0.00;;;18.50;79.10;;;;;;5031816;28;20186;-64
2022/09/20 10:22:01;;;;;;;0.05;0.05;;;18.40;80.90;;;;;;5031868;28;20181;-65
2022/09/20 10:24:31;;;;;;;0.03;0.03;;;18.30;81.20;;;;;;5031660;28;20221;-64
2022/09/20 10:27:28;;;;;;;0.00;0.00;;;18.20;81.30;;;;;;5031778;28;20174;-65
2022/09/20 10:30:08;;;;;;;0.00;0.00;;;18.00;82.70;;;;;;5031788;28;20171;-66
2022/09/20 10:33:02;;;;;;;0.05;0.05;;;17.70;82.50;;;;;;5031640;28;20585;-65
2022/09/20 10:35:46;;;;;;;0.00;0.00;;;17.60;84.20;;;;;;5031507;28;20193;-66
2022/09/20 10:38:30;;;;;;;0.00;0.00;;;17.50;85.60;;;;;;5031716;28;20609;-65
2022/09/20 10:44:02;;;;;;;0.10;0.10;;;17.60;84.80;;;;;;5031748;28;20220;-65
2022/09/20 10:46:45;;;;;;;0.00;0.00;;;17.60;85.50;;;;;;5031454;28;20178;-65
2022/09/20 10:49:31;;;;;;;0.00;0.00;;;17.70;86.90;;;;;;5031583;28;20265;-65
2022/09/20 10:52:05;;;;;;;0.00;0.00;;;17.70;86.50;;;;;;5031542;28;20655;-66
2022/09/20 10:54:45;;;;;;;0.30;0.20;;;17.80;86.60;;;;;;5031572;28;20193;-65
2022/09/20 10:57:28;;;;;;;0.00;0.00;;;17.90;86.10;;;;;;5031524;28;20182;-65
2022/09/20 11:00:39;;;;;;;0.00;0.00;;;18.10;85.10;;;;;;5031516;28;20166;-65
2022/09/20 11:03:34;;;;;;;0.10;0.10;;;18.60;83.10;;;;;;5031265;28;20308;-66
2022/09/20 11:06:16;;;;;;;0.00;0.00;;;19.10;79.40;;;;;;5032524;28;20202;-66
2022/09/20 11:08:42;;;;;;;0.00;0.00;;;19.10;76.70;;;;;;5035214;28;20186;-65
2022/09/20 11:11:31;;;;;;;0.00;0.00;;;19.00;78.80;;;;;;5035064;28;20170;-65
2022/09/20 11:14:09;;;;;;;0.10;0.10;;;18.80;79.10;;;;;;5035136;28;20239;-65
2022/09/20 11:16:58;;;;;;;0.03;0.03;;;18.90;79.90;;;;;;5034963;28;20175;-65
2022/09/20 11:19:26;;;;;;;0.00;0.00;;;19.20;80.90;;;;;;5034840;28;20186;-66
2022/09/20 11:22:00;;;;;;;0.00;0.00;;;19.50;80.00;;;;;;5034898;28;20173;-65
2022/09/20 11:24:46;;;;;;;0.00;0.00;;;19.40;76.90;;;;;;5034735;28;20638;-65
2022/09/20 11:27:19;;;;;;;0.00;0.00;;;19.30;78.10;;;;;;5034559;28;20702;-65
2022/09/20 11:30:07;;;;;;;0.00;0.00;;;19.10;76.70;;;;;;5034720;28;20186;-65
2022/09/20 11:32:42;;;;;;;0.00;0.00;;;19.10;77.80;;;;;;5034651;28;20185;-65
2022/09/20 11:35:10;;;;;;;0.00;0.00;;;19.10;75.80;;;;;;5034570;28;20177;-65
2022/09/20 11:37:41;;;;;;;0.00;0.00;;;19.20;74.90;;;;;;5034475;28;20672;-65
2022/09/20 11:40:28;;;;;;;0.00;0.00;;;19.30;76.00;;;;;;5034418;28;20656;-65
2022/09/20 11:42:58;;;;;;;0.00;0.00;;;19.40;75.80;;;;;;5034600;28;20587;-65
2022/09/20 11:45:25;;;;;;;0.00;0.00;;;19.40;72.50;;;;;;5034258;28;20217;-65
2022/09/20 11:47:58;;;;;;;0.00;0.00;;;19.30;71.40;;;;;;5034535;28;20178;-65
2022/09/20 11:50:51;;;;;;;0.00;0.00;;;19.10;70.10;;;;;;5034293;28;20183;-65
2022/09/20 11:53:33;;;;;;;0.00;0.00;;;19.20;69.70;;;;;;5034245;28;20668;-65
2022/09/20 11:56:09;;;;;;;0.00;0.00;;;19.40;68.60;;;;;;5034196;28;20182;-65
2022/09/20 11:58:59;;;;;;;0.13;0.13;;;19.60;68.50;;;;;;5034145;28;20565;-65
2022/09/20 12:01:30;;;;;;;0.00;0.00;;;19.90;70.90;;;;;;5034108;28;20655;-66
2022/09/20 12:04:01;;;;;;;0.00;0.00;;;20.00;67.30;;;;;;5033862;28;20693;-66
2022/09/20 12:06:32;;;;;;;0.05;0.05;;;20.20;66.90;;;;;;5033919;28;20229;-65
2022/09/20 12:09:00;;;;;;;0.00;0.00;;;20.40;67.50;;;;;;5034030;28;20535;-65
2022/09/20 12:11:35;;;;;;;0.00;0.00;;;20.50;67.30;;;;;;5033993;28;20775;-65
2022/09/20 12:14:03;;;;;;;0.15;0.10;;;20.50;67.20;;;;;;5033713;28;20247;-65
2022/09/20 12:16:43;;;;;;;0.00;0.00;;;20.20;67.90;;;;;;5033314;28;20642;-65
2022/09/20 12:19:12;;;;;;;0.00;0.00;;;20.00;68.90;;;;;;5033827;28;20177;-66
2022/09/20 12:21:56;;;;;;;0.00;0.00;;;20.00;68.40;;;;;;5033700;28;20720;-65
2022/09/20 12:24:23;;;;;;;0.20;0.20;;;20.10;67.90;;;;;;5033447;28;20300;-65
2022/09/20 12:26:50;;;;;;;0.60;0.40;;;20.30;65.70;;;;;;5033683;28;20182;-65
2022/09/20 12:29:25;;;;;;;0.00;0.00;;;20.40;66.30;;;;;;5033467;28;20174;-66
2022/09/20 12:32:15;;;;;;;0.00;0.00;;;20.40;65.70;;;;;;5033664;28;20193;-66
2022/09/20 12:34:40;;;;;;;0.00;0.00;;;20.20;64.50;;;;;;5033138;28;20178;-66
2022/09/20 12:37:06;;;;;;;0.00;0.00;;;20.10;64.40;;;;;;5033447;28;20269;-66
2022/09/20 12:39:35;;;;;;;0.00;0.00;;;20.00;65.70;;;;;;5033369;28;20186;-65
2022/09/20 12:42:05;;;;;;;0.00;0.00;;;19.70;64.00;;;;;;5033210;28;20178;-65
2022/09/20 12:44:48;;;;;;;0.00;0.00;;;19.50;65.30;;;;;;5033060;28;20221;-65
2022/09/20 12:47:19;;;;;;;0.00;0.00;;;19.20;65.70;;;;;;5033298;28;20316;-65
2022/09/20 12:52:55;;;;;;;0.00;0.00;;;18.40;69.90;;;;;;5033072;28;20184;-65
2022/09/20 12:55:32;;;;;;;0.00;0.00;;;17.70;76.20;;;;;;5032816;28;20538;-65
2022/09/20 12:58:00;;;;;;;0.00;0.00;;;17.10;80.80;;;;;;5033123;28;20178;-66
2022/09/20 13:00:39;;;;;;;0.00;0.00;;;16.80;82.80;;;;;;5032932;28;20166;-65
2022/09/20 13:03:13;;;;;;;0.00;0.00;;;16.40;85.80;;;;;;5032686;28;20252;-65
2022/09/20 13:05:47;;;;;;;0.00;0.00;;;16.00;88.30;;;;;;5032998;28;20251;-65
2022/09/20 13:08:27;;;;;;;0.35;0.20;;;15.80;89.30;;;;;;5032926;28;20170;-64
2022/09/20 13:11:08;;;;;;;0.05;0.05;;;15.70;89.90;;;;;;5032902;28;20190;-65
2022/09/20 13:13:45;;;;;;;0.15;0.15;;;15.70;90.60;;;;;;5032682;28;20668;-65
2022/09/20 13:16:50;;;;;;;0.03;0.00;;;15.70;91.40;;;;;;5032869;28;20166;-65
2022/09/20 13:19:19;;;;;;;0.00;0.00;;;15.70;91.30;;;;;;5032558;28;20653;-65
2022/09/20 13:21:58;;;;;;;0.00;0.00;;;15.60;92.20;;;;;;5032874;28;20273;-65
2022/09/20 13:24:25;;;;;;;0.00;0.00;;;15.40;92.50;;;;;;5032459;28;20213;-65
2022/09/20 13:26:53;;;;;;;0.00;0.00;;;15.30;93.20;;;;;;5031914;28;20190;-65
2022/09/20 13:29:34;;;;;;;0.00;0.00;;;15.30;93.50;;;;;;5032315;28;20189;-65
2022/09/20 13:32:25;;;;;;;0.20;0.20;;;15.20;93.60;;;;;;5032250;28;20548;-65
2022/09/20 13:35:17;;;;;;;0.10;0.10;;;15.20;93.10;;;;;;5032433;28;20711;-65
2022/09/20 13:37:54;;;;;;;0.00;0.00;;;15.20;93.70;;;;;;5032369;28;20174;-65
2022/09/20 13:40:22;;;;;;;0.00;0.00;;;15.20;94.60;;;;;;5032257;28;20585;-65
2022/09/20 13:42:50;;;;;;;0.00;0.00;;;15.20;95.10;;;;;;5032316;28;20182;-65
2022/09/20 13:45:16;;;;;;;0.20;0.20;;;15.20;94.30;;;;;;5032119;28;20584;-65
2022/09/20 13:47:43;;;;;;;0.05;0.05;;;15.10;94.10;;;;;;5032252;28;20177;-65
2022/09/20 13:50:25;;;;;;;0.00;0.00;;;15.10;95.00;;;;;;5032275;28;20185;-65
2022/09/20 13:52:54;;;;;;;0.00;0.00;;;15.20;96.40;;;;;;5032257;28;20188;-65
2022/09/20 13:55:42;;;;;;;0.00;0.00;;;15.10;96.50;;;;;;5031762;28;20182;-65
2022/09/20 13:58:24;;;;;;;0.00;0.00;;;15.10;96.70;;;;;;5031935;28;20269;-65